Terminal Aerodrome Forecast
Issued by NWS North Platte, NE

Home | Current Version | Previous Version | Text Only | Print | Product List | Glossary Off
Versions: 1 2 3 4 5 6 7 8 9 10 11 12 13 14 15 16 17 18 19 20 21 22

000
FTUS43 KLBF 191720
TAFVTN
TAF
KVTN 191720Z 1918/2018 22014G21KT P6SM FEW200
     FM200000 24011KT P6SM VCTS SCT050 BKN100CB
      TEMPO 2001/2005 -TSRA BKN050 BKN100CB
     FM200500 02008KT P6SM BKN150
     FM201000 03010KT P6SM BKN150
     FM201600 09010KT P6SM BKN150=

USA.gov is the U.S. government's official web portal to all federal, state and local government web resources and services.